Danville, West Virginia
Current Conditions -  °F | °C
As of 4:54 AM on Saturday 01 Nov 2014 (Local Time) from KCRW Reporting Station
Light Rain Light Rain  
Wind Chill: 38°   Ceiling: 1800
Heat Index: 41°   Visibility: 6mi
Dew Point: 39°   Wind: 5mph
Humidity: 93%   Direction: 340°NNW
Pressure: 29.87"   Gusts: NA
Location:  38.08°N, 81.83°W
Report Text: KCRW 010854Z 34004KT 6SM -RA BR SCT008 OVC018 05/04 A2987 RMK AO2 SLP117 VLY FG P0000 60007 T00500039 52005
Loading
Personal Weather Stations






























Interactive Weather Map
Tropical Storm Tracking
New forecast layout! Learn more

10-Day Weather Forecast

Advertisements
Track Severe Weather on mobile